CDT,Max TemperatureF,Mean TemperatureF,Min TemperatureF,Max Dew PointF,MeanDew PointF,Min DewpointF,Max Humidity, Mean Humidity, Min Humidity, Max Sea Level PressureIn, Mean Sea Level PressureIn, Min Sea Level PressureIn, Max VisibilityMiles, Mean VisibilityMiles, Min VisibilityMiles, Max Wind SpeedMPH, Mean Wind SpeedMPH, Max Gust SpeedMPH,PrecipitationIn, CloudCover, Events, WindDirDegrees
2013-10-1,75,62,48,55,46,34,89,60,25,29.97,29.81,29.71,10,10,10,16,9,29,0.00,0,,228
2013-10-2,71,52,33,44,38,32,97,58,25,30.11,30.03,29.93,10,10,10,9,3,,0.00,1,Thunderstorm,160
2013-10-3,59,54,48,56,51,41,97,89,49,30.00,29.92,29.88,10,9,2,21,9,25,0.98,5,Rain-Thunderstorm,69
2013-10-4,54,53,52,54,52,51,97,95,92,30.04,30.00,29.93,10,8,2,16,9,22,0.22,8,Rain-Thunderstorm,74
2013-10-5,59,54,50,58,55,50,99,97,94,30.00,29.85,29.73,10,5,1,16,9,26,1.64,8,Rain-Thunderstorm,95
2013-10-6,55,50,44,49,42,34,99,78,48,29.72,29.70,29.66,10,9,0,14,4,20,0.01,4,Fog-Rain,235
2013-10-7,60,48,37,45,40,36,99,78,41,30.04,29.88,29.72,10,9,0,16,9,22,0.00,3,Fog,296
2013-10-8,71,54,37,47,42,36,94,67,34,30.07,30.03,29.98,10,10,10,22,7,25,0.00,0,,166
2013-10-9,70,58,46,50,46,43,88,70,45,30.16,30.11,30.03,10,10,10,16,9,20,0.00,0,,171
2013-10-10,68,54,40,48,44,39,95,71,42,30.14,30.09,30.03,10,10,10,16,5,18,0.00,0,,148
2013-10-11,71,59,48,56,51,46,93,76,53,30.04,29.95,29.84,10,9,4,23,8,29,0.00,2,,136
2013-10-12,60,53,46,54,44,37,89,68,50,30.10,29.93,29.81,10,10,10,21,11,28,0.00,6,,228
2013-10-13,56,44,33,41,35,28,99,72,37,30.40,30.31,30.12,10,10,0,10,7,18,0.00,3,Fog,285
2013-10-14,57,44,30,40,34,28,96,71,45,30.42,30.32,30.13,10,10,10,13,4,22,0.00,1,,107
2013-10-15,53,49,45,52,46,40,99,94,80,30.11,29.83,29.68,10,6,0,15,9,23,0.79,8,Fog-Rain,153
2013-10-16,46,39,32,45,40,32,99,91,81,29.90,29.83,29.72,10,9,1,15,7,21,0.01,7,Rain,307
2013-10-17,53,40,28,42,34,28,100,85,49,29.89,29.81,29.75,10,6,0,9,1,,0.00,6,Fog-Rain,243
2013-10-18,43,36,30,42,37,29,98,91,71,29.89,29.82,29.73,10,8,3,17,3,24,0.06,6,Rain,303
2013-10-19,45,37,30,37,32,28,100,88,67,29.83,29.73,29.66,10,10,5,16,4,24,0.01,4,Rain,235
2013-10-20,38,32,25,38,32,25,100,97,87,29.78,29.71,29.64,10,5,0,14,3,23,0.12,7,Fog-Rain,159
2013-10-21,33,32,31,33,26,20,96,78,59,29.84,29.80,29.70,10,9,3,18,12,25,0.00,8,Snow,278
2013-10-22,41,34,28,29,26,23,92,74,53,29.96,29.90,29.82,10,10,10,14,9,24,0.00,7,,313
2013-10-23,36,28,20,29,23,19,94,76,57,29.98,29.94,29.92,10,10,7,13,5,17,0.00,6,,295
2013-10-24,39,34,30,30,25,21,90,74,55,30.24,30.11,29.98,10,10,5,14,8,21,0.00,8,Snow,290
2013-10-25,49,40,31,36,29,24,88,69,53,30.26,30.05,29.69,10,10,10,20,8,29,0.00,6,,228
2013-10-26,48,40,33,37,32,28,93,70,59,30.02,29.87,29.67,10,10,1,20,11,30,0.02,6,Rain,305
2013-10-27,52,41,30,31,29,27,87,69,40,30.09,29.91,29.80,10,10,10,20,7,23,0.00,2,,249
2013-10-28,39,31,22,31,21,16,85,65,40,30.42,30.34,30.10,10,10,10,17,10,25,0.00,2,,55
2013-10-29,37,30,22,34,27,17,94,81,72,30.42,30.27,30.12,10,10,5,10,6,,0.00,6,Rain,96
2013-10-30,49,42,36,49,42,35,100,98,95,30.12,29.96,29.71,5,2,0,9,5,,0.03,8,Fog-Rain,125
2013-10-31,52,46,39,52,47,39,100,99,97,29.70,29.42,29.26,10,2,0,16,6,23,0.05,8,Fog-Rain,226